createdAt,value
2023-04-14T00:00:03.245Z,78.36
2023-04-14T00:02:40.104Z,77.30
2023-04-14T00:05:10.257Z,77.48
2023-04-14T00:07:37.794Z,78.48
2023-04-14T00:10:05.780Z,77.53
2023-04-14T00:12:33.268Z,78.86
2023-04-14T00:15:00.769Z,78.91
2023-04-14T00:17:28.275Z,78.41
2023-04-14T00:19:56.042Z,78.54
2023-04-14T00:22:24.853Z,78.66
2023-04-14T00:24:52.348Z,78.27
2023-04-14T00:27:19.862Z,78.84
2023-04-14T00:29:47.424Z,79.61
2023-04-14T00:32:14.932Z,79.83
2023-04-14T00:34:42.456Z,79.69
2023-04-14T00:37:10.466Z,79.36
2023-04-14T00:39:39.347Z,79.23
2023-04-14T00:42:06.888Z,80.47
2023-04-14T00:44:34.384Z,80.56
2023-04-14T00:47:02.290Z,80.85
2023-04-14T00:49:29.823Z,80.84
2023-04-14T00:51:57.550Z,80.92
2023-04-14T00:54:26.500Z,79.58
2023-04-14T00:56:57.390Z,79.04
2023-04-14T00:59:25.600Z,78.72
2023-04-14T01:01:53.306Z,78.74
2023-04-14T01:04:21.204Z,79.90
2023-04-14T01:06:48.782Z,80.20
2023-04-14T01:09:16.719Z,80.75
2023-04-14T01:11:51.718Z,80.37
2023-04-14T01:14:31.470Z,81.33
2023-04-14T01:17:02.971Z,81.35
2023-04-14T01:19:42.674Z,81.21
2023-04-14T01:22:11.062Z,80.87
2023-04-14T01:24:51.768Z,80.90
2023-04-14T01:27:33.705Z,81.16
2023-04-14T01:30:17.326Z,81.25
2023-04-14T01:32:47.504Z,81.18
2023-04-14T01:35:20.778Z,81.45
2023-04-14T01:37:49.887Z,81.35
2023-04-14T01:40:18.390Z,82.01
2023-04-14T01:42:48.851Z,81.35
2023-04-14T01:45:18.046Z,81.59
2023-04-14T01:47:47.554Z,81.95
2023-04-14T01:50:16.153Z,81.03
2023-04-14T01:52:44.449Z,80.18
2023-04-14T01:55:12.757Z,80.35
2023-04-14T01:57:44.043Z,80.02
2023-04-14T02:00:12.902Z,79.95
2023-04-14T02:02:44.520Z,80.71
2023-04-14T02:05:14.030Z,80.81
2023-04-14T02:07:43.901Z,79.62
2023-04-14T02:10:12.102Z,80.84
2023-04-14T02:12:44.146Z,80.19
2023-04-14T02:15:13.629Z,80.67
2023-04-14T02:17:41.650Z,80.92
2023-04-14T02:20:11.096Z,81.10
2023-04-14T02:22:40.041Z,80.99
2023-04-14T02:25:08.304Z,81.10
2023-04-14T02:27:38.359Z,80.93
2023-04-14T02:30:11.259Z,80.77
2023-04-14T02:32:40.923Z,82.03
2023-04-14T02:35:13.568Z,82.72
2023-04-14T02:37:45.393Z,82.71
2023-04-14T02:40:15.363Z,82.25
2023-04-14T02:42:48.030Z,82.91
2023-04-14T02:45:20.590Z,82.56
2023-04-14T02:47:53.838Z,83.03
2023-04-14T02:50:22.683Z,82.62
2023-04-14T02:53:05.653Z,83.15
2023-04-14T02:55:37.747Z,83.12
2023-04-14T02:58:05.965Z,82.90
2023-04-14T03:00:38.012Z,82.97
2023-04-14T03:03:06.837Z,82.59
2023-04-14T03:05:36.076Z,81.30
2023-04-14T03:08:12.230Z,82.29
2023-04-14T03:10:43.573Z,82.91
2023-04-14T03:13:12.395Z,83.38
2023-04-14T03:15:40.727Z,83.77
2023-04-14T03:18:08.645Z,84.22
2023-04-14T03:20:37.331Z,84.65
2023-04-14T03:23:06.046Z,84.87
2023-04-14T03:25:41.556Z,84.82
2023-04-14T03:28:16.400Z,84.79
2023-04-14T03:30:48.834Z,83.73
2023-04-14T03:33:20.788Z,84.09
2023-04-14T03:35:50.549Z,83.48
2023-04-14T03:38:19.190Z,83.98
2023-04-14T03:40:48.853Z,83.57
2023-04-14T03:43:22.737Z,82.91
2023-04-14T03:45:57.496Z,82.49
2023-04-14T03:48:27.246Z,82.67
2023-04-14T03:50:55.648Z,83.10
2023-04-14T03:53:23.451Z,83.73
2023-04-14T03:55:53.873Z,83.54
2023-04-14T03:58:22.302Z,83.89
2023-04-14T04:00:52.853Z,84.10
2023-04-14T04:03:21.775Z,83.91
2023-04-14T04:05:49.698Z,84.26
2023-04-14T04:08:19.118Z,84.25
2023-04-14T04:10:47.850Z,84.53
2023-04-14T04:13:18.725Z,84.65
2023-04-14T04:15:49.498Z,84.99
2023-04-14T04:18:18.234Z,85.46
2023-04-14T04:20:47.556Z,85.58
2023-04-14T04:23:17.572Z,85.51
2023-04-14T04:25:45.454Z,85.00
2023-04-14T04:28:22.778Z,85.57
2023-04-14T04:30:51.522Z,85.01
2023-04-14T04:33:19.354Z,84.95
2023-04-14T04:35:47.811Z,85.38
2023-04-14T04:38:15.421Z,85.22
2023-04-14T04:40:46.272Z,85.67
2023-04-14T04:43:23.966Z,85.39
2023-04-14T04:46:03.537Z,84.77
2023-04-14T04:48:31.366Z,84.91
2023-04-14T04:50:58.865Z,85.71
2023-04-14T04:53:26.342Z,85.07
2023-04-14T04:55:53.885Z,84.99
2023-04-14T04:58:21.368Z,84.88
2023-04-14T05:00:50.326Z,84.92
2023-04-14T05:03:18.075Z,84.79
2023-04-14T05:05:45.772Z,84.67
2023-04-14T05:08:15.053Z,84.86
2023-04-14T05:10:42.885Z,85.04
2023-04-14T05:13:10.450Z,84.80
2023-04-14T05:15:37.968Z,84.63
2023-04-14T05:18:06.990Z,85.10
2023-04-14T05:20:35.104Z,85.47
2023-04-14T05:23:03.137Z,85.78
2023-04-14T05:25:30.812Z,85.46
2023-04-14T05:27:58.337Z,85.48
2023-04-14T05:30:26.496Z,85.38
2023-04-14T05:32:54.019Z,85.30
2023-04-14T05:35:24.921Z,84.73
2023-04-14T05:37:52.512Z,85.01
2023-04-14T05:40:20.750Z,84.91
2023-04-14T05:42:48.270Z,84.97
2023-04-14T05:45:15.936Z,84.10
2023-04-14T05:47:43.892Z,84.50
2023-04-14T05:50:12.221Z,84.24
2023-04-14T05:52:41.137Z,83.96
2023-04-14T05:55:09.330Z,84.25
2023-04-14T05:57:36.920Z,83.93
2023-04-14T06:00:06.173Z,83.39
2023-04-14T06:02:40.763Z,83.04
2023-04-14T06:05:09.387Z,83.55
2023-04-14T06:07:37.303Z,83.17
2023-04-14T06:10:07.281Z,83.41
2023-04-14T06:12:34.871Z,83.35
2023-04-14T06:15:02.520Z,83.32
2023-04-14T06:17:30.032Z,83.51
2023-04-14T06:19:58.171Z,83.31
2023-04-14T06:22:29.213Z,82.61
2023-04-14T06:24:57.294Z,82.66
2023-04-14T06:27:26.222Z,82.70
2023-04-14T06:29:53.826Z,83.13
2023-04-14T06:32:21.506Z,82.63
2023-04-14T06:34:50.717Z,82.11
2023-04-14T06:37:19.565Z,81.97
2023-04-14T06:39:47.177Z,81.53
2023-04-14T06:42:15.425Z,81.25
2023-04-14T06:44:44.250Z,81.18
2023-04-14T06:47:11.769Z,80.72
2023-04-14T06:49:39.305Z,80.83
2023-04-14T06:52:07.345Z,81.02
2023-04-14T06:54:34.948Z,80.71
2023-04-14T06:57:03.020Z,80.77
2023-04-14T06:59:30.595Z,80.28
2023-04-14T07:01:59.632Z,80.38
2023-04-14T07:04:27.289Z,80.54
2023-04-14T07:06:54.767Z,80.44
2023-04-14T07:09:22.717Z,80.64
2023-04-14T07:11:50.272Z,81.30
2023-04-14T07:14:17.758Z,81.63
2023-04-14T07:16:45.309Z,81.06
2023-04-14T07:19:14.185Z,80.94
2023-04-14T07:21:41.809Z,81.48
2023-04-14T07:24:09.509Z,81.48
2023-04-14T07:26:37.417Z,81.18
2023-04-14T07:29:04.931Z,81.21
2023-04-14T07:31:34.514Z,80.62
2023-04-14T07:34:02.456Z,80.45
2023-04-14T07:36:33.216Z,80.24
2023-04-14T07:39:00.924Z,80.17
2023-04-14T07:41:28.888Z,78.96
2023-04-14T07:43:57.768Z,79.10
2023-04-14T07:46:25.425Z,78.46
2023-04-14T07:48:53.033Z,78.10
2023-04-14T07:51:20.707Z,78.26
2023-04-14T07:53:50.966Z,78.85
2023-04-14T07:56:18.476Z,78.44
2023-04-14T07:58:46.517Z,78.35
2023-04-14T08:01:14.169Z,78.20
2023-04-14T08:03:44.605Z,78.50
2023-04-14T08:06:13.192Z,78.59
2023-04-14T08:08:40.855Z,79.95
2023-04-14T08:11:09.801Z,79.94
2023-04-14T08:13:37.319Z,80.77
2023-04-14T08:16:05.004Z,81.39
2023-04-14T08:18:32.519Z,82.18
2023-04-14T08:21:00.013Z,81.01
2023-04-14T08:23:27.675Z,81.50
2023-04-14T08:25:55.458Z,81.84
2023-04-14T08:28:24.620Z,81.46
2023-04-14T08:30:52.169Z,82.00
2023-04-14T08:33:19.625Z,81.54
2023-04-14T08:35:47.124Z,82.31
2023-04-14T08:38:26.128Z,81.60
2023-04-14T08:40:56.254Z,80.45
2023-04-14T08:43:25.267Z,81.05
2023-04-14T08:45:53.398Z,81.32
2023-04-14T08:48:23.027Z,82.24
2023-04-14T08:50:59.306Z,81.83
2023-04-14T08:53:27.849Z,82.77
2023-04-14T08:55:58.065Z,83.15
2023-04-14T08:58:27.408Z,83.62
2023-04-14T09:00:55.130Z,83.46
2023-04-14T09:03:23.085Z,82.78
2023-04-14T09:05:51.249Z,82.76
2023-04-14T09:08:18.851Z,83.70
2023-04-14T09:10:46.688Z,84.40
2023-04-14T09:13:15.249Z,84.14
2023-04-14T09:15:44.583Z,84.16
2023-04-14T09:18:12.401Z,84.20
2023-04-14T09:20:41.307Z,85.35
2023-04-14T09:23:10.268Z,85.02
2023-04-14T09:25:39.269Z,85.45
2023-04-14T09:28:06.807Z,85.65
2023-04-14T09:30:34.479Z,86.09
2023-04-14T09:33:06.920Z,86.32
2023-04-14T09:35:44.564Z,86.99
2023-04-14T09:38:12.069Z,87.35
2023-04-14T09:40:39.984Z,87.14
2023-04-14T09:43:07.516Z,87.05
2023-04-14T09:45:42.592Z,86.95
2023-04-14T09:48:12.870Z,87.57
2023-04-14T09:51:00.901Z,87.07
2023-04-14T09:53:29.721Z,87.98
2023-04-14T09:55:57.760Z,86.18
2023-04-14T09:58:27.815Z,84.58
2023-04-14T10:00:57.129Z,84.78
2023-04-14T10:03:36.426Z,85.58
2023-04-14T10:06:07.344Z,84.57
2023-04-14T10:08:37.272Z,85.21
2023-04-14T10:11:18.875Z,85.84
2023-04-14T10:13:47.391Z,86.02
2023-04-14T10:16:15.592Z,86.29
2023-04-14T10:18:44.814Z,86.86
2023-04-14T10:21:12.573Z,86.80
2023-04-14T10:23:41.779Z,86.95
2023-04-14T10:26:10.105Z,86.80
2023-04-14T10:28:38.969Z,87.11
2023-04-14T10:31:09.193Z,86.83
2023-04-14T10:33:37.919Z,86.91
2023-04-14T10:36:07.277Z,86.47
2023-04-14T10:38:39.991Z,86.44
2023-04-14T10:41:07.850Z,87.11
2023-04-14T10:43:36.796Z,86.38
2023-04-14T10:46:06.429Z,86.23
2023-04-14T10:48:35.362Z,86.21
2023-04-14T10:51:04.210Z,85.58
2023-04-14T10:53:46.846Z,86.76
2023-04-14T10:56:14.357Z,86.87
2023-04-14T10:58:41.968Z,87.20
2023-04-14T11:01:26.183Z,87.55
2023-04-14T11:03:56.275Z,86.80
2023-04-14T11:06:49.333Z,85.27
2023-04-14T11:09:33.722Z,86.13
2023-04-14T11:12:07.297Z,85.40
2023-04-14T11:14:36.300Z,85.97
2023-04-14T11:17:05.126Z,83.78
2023-04-14T11:19:33.441Z,84.16
2023-04-14T11:22:01.038Z,85.33
2023-04-14T11:24:29.851Z,85.32
2023-04-14T11:26:57.913Z,85.56
2023-04-14T11:29:25.425Z,86.08
2023-04-14T11:32:03.472Z,84.76
2023-04-14T11:34:31.047Z,85.16
2023-04-14T11:36:58.568Z,83.36
2023-04-14T11:39:26.267Z,85.00
2023-04-14T11:41:56.036Z,85.86
2023-04-14T11:44:23.753Z,85.18
2023-04-14T11:46:51.576Z,84.65
2023-04-14T11:49:21.122Z,85.79
2023-04-14T11:51:49.678Z,85.99
2023-04-14T11:54:17.217Z,86.05
2023-04-14T11:56:44.911Z,84.99
2023-04-14T11:59:13.770Z,85.36
2023-04-14T12:01:41.299Z,85.52
2023-04-14T12:04:10.679Z,84.08
2023-04-14T12:06:39.080Z,85.61
2023-04-14T12:09:09.829Z,84.63
2023-04-14T12:11:39.520Z,82.41
2023-04-14T12:14:07.037Z,80.63
2023-04-14T12:16:36.172Z,80.19
2023-04-14T12:19:04.582Z,82.46
2023-04-14T12:21:32.311Z,81.98
2023-04-14T12:24:04.238Z,80.79
2023-04-14T12:26:32.641Z,80.79
2023-04-14T12:29:01.497Z,81.34
2023-04-14T12:31:30.324Z,79.73
2023-04-14T12:34:03.267Z,80.38
2023-04-14T12:36:48.143Z,79.56
2023-04-14T12:39:16.944Z,79.76
2023-04-14T12:41:44.519Z,78.94
2023-04-14T12:44:19.629Z,78.82
2023-04-14T12:46:50.001Z,77.49
2023-04-14T12:49:36.254Z,78.36
2023-04-14T12:52:04.531Z,77.94
2023-04-14T12:54:48.732Z,77.48
2023-04-14T12:57:16.238Z,78.81
2023-04-14T12:59:43.785Z,79.09
2023-04-14T13:02:11.397Z,80.43
2023-04-14T13:04:40.374Z,79.89
2023-04-14T13:07:07.868Z,79.21
2023-04-14T13:09:36.620Z,80.02
2023-04-14T13:12:04.368Z,81.36
2023-04-14T13:14:31.847Z,80.45
2023-04-14T13:16:59.448Z,80.41
2023-04-14T13:19:26.933Z,80.53
2023-04-14T13:21:56.111Z,80.77
2023-04-14T13:24:23.548Z,80.94
2023-04-14T13:26:51.817Z,80.73
2023-04-14T13:29:19.455Z,80.55
2023-04-14T13:31:46.981Z,80.95
2023-04-14T13:34:14.556Z,79.98
2023-04-14T13:36:42.126Z,79.02
2023-04-14T13:39:11.002Z,79.96
2023-04-14T13:41:38.562Z,79.15
2023-04-14T13:44:06.481Z,78.94
2023-04-14T13:46:40.830Z,78.54
2023-04-14T13:49:08.860Z,78.68
2023-04-14T13:51:36.324Z,78.74
2023-04-14T13:54:03.820Z,79.16
2023-04-14T13:56:32.784Z,78.52
2023-04-14T13:59:00.876Z,78.11
2023-04-14T14:01:28.562Z,78.34
2023-04-14T14:03:56.670Z,78.13
2023-04-14T14:06:24.409Z,77.31
2023-04-14T14:09:03.357Z,76.43
2023-04-14T14:11:35.793Z,78.00
2023-04-14T14:14:03.829Z,77.35
2023-04-14T14:16:37.109Z,75.60
2023-04-14T14:19:05.405Z,75.97
2023-04-14T14:21:32.980Z,75.82
2023-04-14T14:24:00.952Z,75.57
2023-04-14T14:26:29.001Z,74.48
2023-04-14T14:28:57.827Z,75.31
2023-04-14T14:31:25.721Z,72.71
2023-04-14T14:33:53.240Z,74.18
2023-04-14T14:36:20.746Z,73.60
2023-04-14T14:38:48.225Z,72.89
2023-04-14T14:41:15.744Z,73.38
2023-04-14T14:43:43.250Z,73.19
2023-04-14T14:46:12.095Z,73.08
2023-04-14T14:48:39.891Z,72.74
2023-04-14T14:51:07.371Z,72.10
2023-04-14T14:53:35.204Z,71.75
2023-04-14T14:56:02.762Z,71.91
2023-04-14T14:58:30.526Z,73.10
2023-04-14T15:00:58.131Z,74.24
2023-04-14T15:03:27.105Z,74.12
2023-04-14T15:05:54.724Z,73.60
2023-04-14T15:08:22.410Z,73.87
2023-04-14T15:10:51.196Z,73.43
2023-04-14T15:13:18.945Z,73.49
2023-04-14T15:15:46.439Z,73.32
2023-04-14T15:18:14.089Z,73.16
2023-04-14T15:20:43.222Z,74.03
2023-04-14T15:23:10.794Z,74.01
2023-04-14T15:25:38.335Z,74.46
2023-04-14T15:28:06.078Z,74.82
2023-04-14T15:30:33.610Z,75.18
2023-04-14T15:33:01.721Z,74.70
2023-04-14T15:35:29.241Z,75.45
2023-04-14T15:37:58.048Z,75.52
2023-04-14T15:40:25.538Z,75.41
2023-04-14T15:42:53.689Z,75.37
2023-04-14T15:45:21.538Z,75.87
2023-04-14T15:47:49.407Z,76.17
2023-04-14T15:50:18.897Z,75.95
2023-04-14T15:52:46.520Z,76.06
2023-04-14T15:55:15.404Z,76.17
2023-04-14T15:57:44.616Z,76.68
2023-04-14T16:00:13.783Z,76.75
2023-04-14T16:02:41.948Z,76.94
2023-04-14T16:05:10.119Z,77.22
2023-04-14T16:07:37.642Z,77.57
2023-04-14T16:10:06.311Z,77.34
2023-04-14T16:12:36.657Z,77.73
2023-04-14T16:15:07.800Z,77.77
2023-04-14T16:17:35.465Z,78.74
2023-04-14T16:20:03.649Z,78.49
2023-04-14T16:22:31.520Z,78.27
2023-04-14T16:24:59.027Z,78.29
2023-04-14T16:27:26.504Z,78.96
2023-04-14T16:29:55.336Z,79.49
2023-04-14T16:32:22.846Z,79.85
2023-04-14T16:34:50.586Z,79.45
2023-04-14T16:37:18.085Z,80.40
2023-04-14T16:39:46.253Z,80.79
2023-04-14T16:42:13.762Z,81.06
2023-04-14T16:44:42.812Z,81.02
2023-04-14T16:47:11.632Z,81.02
2023-04-14T16:49:39.134Z,81.20
2023-04-14T16:52:07.040Z,81.08
2023-04-14T16:54:35.012Z,81.41
2023-04-14T16:57:02.802Z,81.45
2023-04-14T16:59:30.542Z,81.77
2023-04-14T17:01:58.371Z,81.67
2023-04-14T17:04:27.545Z,82.17
2023-04-14T17:06:55.735Z,82.45
2023-04-14T17:09:23.344Z,82.26
2023-04-14T17:11:53.245Z,83.09
2023-04-14T17:14:20.866Z,82.98
2023-04-14T17:16:48.403Z,83.52
2023-04-14T17:19:16.965Z,83.01
2023-04-14T17:21:45.946Z,83.83
2023-04-14T17:24:13.406Z,83.68
2023-04-14T17:26:41.115Z,83.86
2023-04-14T17:29:09.147Z,83.44
2023-04-14T17:31:38.954Z,83.66
2023-04-14T17:34:10.631Z,84.47
2023-04-14T17:36:39.812Z,84.37
2023-04-14T17:39:10.306Z,83.85
2023-04-14T17:41:38.580Z,83.57
2023-04-14T17:44:06.097Z,83.11
2023-04-14T17:46:34.548Z,82.52
2023-04-14T17:49:02.539Z,82.40
2023-04-14T17:51:31.551Z,82.17
2023-04-14T17:53:59.494Z,81.93
2023-04-14T17:56:30.639Z,81.75
2023-04-14T17:58:58.446Z,81.98
2023-04-14T18:01:26.244Z,82.07
2023-04-14T18:03:54.128Z,82.60
2023-04-14T18:06:22.798Z,82.69
2023-04-14T18:08:50.406Z,83.24
2023-04-14T18:11:18.089Z,83.34
2023-04-14T18:13:46.929Z,83.81
2023-04-14T18:16:14.438Z,84.33
2023-04-14T18:18:42.325Z,84.58
2023-04-14T18:21:13.297Z,85.03
2023-04-14T18:23:40.821Z,85.90
2023-04-14T18:28:39.237Z,86.00
2023-04-14T18:31:08.678Z,86.18
2023-04-14T18:33:36.319Z,85.79
2023-04-14T18:36:05.133Z,86.06
2023-04-14T18:38:32.645Z,86.78
2023-04-14T18:41:04.926Z,86.96
2023-04-14T18:43:33.355Z,87.14
2023-04-14T18:46:01.138Z,87.42
2023-04-14T18:48:30.028Z,87.66
2023-04-14T18:50:59.125Z,87.62
2023-04-14T18:53:26.685Z,87.67
2023-04-14T18:55:54.212Z,87.56
2023-04-14T18:58:21.818Z,88.53
2023-04-14T19:00:49.502Z,88.02
2023-04-14T19:03:18.416Z,88.01
2023-04-14T19:05:47.291Z,88.18
2023-04-14T19:08:14.763Z,88.59
2023-04-14T19:10:42.556Z,88.79
2023-04-14T19:13:11.188Z,88.49
2023-04-14T19:15:38.759Z,88.49
2023-04-14T19:18:06.329Z,88.47
2023-04-14T19:20:37.013Z,88.63
2023-04-14T19:23:06.040Z,88.84
2023-04-14T19:25:38.587Z,88.42
2023-04-14T19:28:06.691Z,88.43
2023-04-14T19:30:34.269Z,88.88
2023-04-14T19:33:02.386Z,89.08
2023-04-14T19:35:31.530Z,88.89
2023-04-14T19:38:03.478Z,89.11
2023-04-14T19:40:38.124Z,89.39
2023-04-14T19:43:09.633Z,89.41
2023-04-14T19:45:37.310Z,89.46
2023-04-14T19:48:16.149Z,89.52
2023-04-14T19:50:52.038Z,91.01
2023-04-14T19:53:20.330Z,90.81
2023-04-14T19:55:53.640Z,90.56
2023-04-14T19:58:21.856Z,90.93
2023-04-14T20:00:51.504Z,90.69
2023-04-14T20:03:19.705Z,90.50
2023-04-14T20:05:51.390Z,90.53
2023-04-14T20:08:20.225Z,90.11
2023-04-14T20:10:51.041Z,90.11
2023-04-14T20:13:21.446Z,89.78
2023-04-14T20:15:49.229Z,90.34
2023-04-14T20:18:18.957Z,89.75
2023-04-14T20:20:48.215Z,89.94
2023-04-14T20:23:16.968Z,89.77
2023-04-14T20:25:45.559Z,90.08
2023-04-14T20:28:15.057Z,90.30
2023-04-14T20:30:47.987Z,90.44
2023-04-14T20:33:16.393Z,90.45
2023-04-14T20:35:44.022Z,90.46
2023-04-14T20:38:15.167Z,90.89
2023-04-14T20:40:43.458Z,90.83
2023-04-14T20:43:11.157Z,91.17
2023-04-14T20:45:39.224Z,91.03
2023-04-14T20:48:09.123Z,90.77
2023-04-14T20:50:37.204Z,90.72
2023-04-14T20:53:04.781Z,90.67
2023-04-14T20:55:32.269Z,90.84
2023-04-14T20:57:59.879Z,90.68
2023-04-14T21:00:27.379Z,90.53
2023-04-14T21:02:54.956Z,90.75
2023-04-14T21:05:25.397Z,91.23
2023-04-14T21:07:52.930Z,91.05
2023-04-14T21:10:20.721Z,90.92
2023-04-14T21:15:29.877Z,91.09
2023-04-14T21:15:52.017Z,91.16
2023-04-14T21:18:23.041Z,91.04
2023-04-14T21:20:51.902Z,90.67
2023-04-14T21:23:20.289Z,90.94
2023-04-14T21:25:48.009Z,90.75
2023-04-14T21:28:16.285Z,90.36
2023-04-14T21:30:44.350Z,90.42
2023-04-14T21:33:11.926Z,90.16
2023-04-14T21:35:39.528Z,90.00
2023-04-14T21:38:09.511Z,90.10
2023-04-14T21:40:37.035Z,89.79
2023-04-14T21:43:04.560Z,89.91
2023-04-14T21:45:32.836Z,89.74
2023-04-14T21:48:00.520Z,89.64
2023-04-14T21:50:28.195Z,90.25
2023-04-14T21:52:56.445Z,90.55
2023-04-14T21:55:25.361Z,90.47
2023-04-14T21:57:54.419Z,90.51
2023-04-14T22:00:22.116Z,90.38
2023-04-14T22:02:49.842Z,90.94
2023-04-14T22:05:17.544Z,90.68
2023-04-14T22:07:45.497Z,90.72
2023-04-14T22:10:13.025Z,90.91
2023-04-14T22:12:42.435Z,91.14
2023-04-14T22:15:10.873Z,90.75
2023-04-14T22:17:39.359Z,90.98
2023-04-14T22:20:07.827Z,91.05
2023-04-14T22:22:35.419Z,91.37
2023-04-14T22:25:03.626Z,91.75
2023-04-14T22:27:31.362Z,91.80
2023-04-14T22:30:00.241Z,91.51
2023-04-14T22:32:28.078Z,91.96
2023-04-14T22:34:55.576Z,91.93
2023-04-14T22:37:23.087Z,91.64
2023-04-14T22:39:50.805Z,91.33
2023-04-14T22:42:18.314Z,90.80
2023-04-14T22:44:47.962Z,90.89
2023-04-14T22:47:16.950Z,90.85
2023-04-14T22:49:44.540Z,91.15
2023-04-14T22:52:12.297Z,90.85
2023-04-14T22:54:39.860Z,91.07
2023-04-14T22:57:07.339Z,90.32
2023-04-14T22:59:34.843Z,90.64
2023-04-14T23:02:02.458Z,90.60
2023-04-14T23:04:31.400Z,90.48
2023-04-14T23:06:59.215Z,90.43
2023-04-14T23:09:30.247Z,90.41
2023-04-14T23:11:57.807Z,91.26
2023-04-14T23:14:25.525Z,91.61
2023-04-14T23:16:53.157Z,91.89
2023-04-14T23:19:20.837Z,91.94
2023-04-14T23:21:50.943Z,91.90
2023-04-14T23:24:18.550Z,91.86
2023-04-14T23:26:46.519Z,91.40
2023-04-14T23:29:14.000Z,91.63
2023-04-14T23:31:41.483Z,91.51
2023-04-14T23:34:10.775Z,91.55
2023-04-14T23:36:38.563Z,91.14
2023-04-14T23:39:07.511Z,91.25
2023-04-14T23:41:35.076Z,91.27
2023-04-14T23:44:02.719Z,91.14
2023-04-14T23:46:30.390Z,90.98
2023-04-14T23:48:59.049Z,90.59
2023-04-14T23:51:37.996Z,90.88
2023-04-14T23:54:08.188Z,90.67
2023-04-14T23:56:35.729Z,91.12
2023-04-14T23:59:03.568Z,91.00
